Time;durP1;ratioP1;P1;durP2;ratioP2;P2;SDS_P1;SDS_P2;PMS_P1;PMS_P2;Temp;Humidity;BMP_temperature;BMP_pressure;BME280_temperature;BME280_humidity;BME280_pressure;Samples;Min_cycle;Max_cycle;Signal;HPM_P1;HPM_P2
2021/12/14 00:01:55;;;;;;;33.90;20.60;;;128.10;2252.80;;;;;;5011547;28;20034;-63
2021/12/14 00:04:27;;;;;;;17.60;11.65;;;128.30;2252.80;;;;;;5011225;28;20041;-61
2021/12/14 00:06:54;;;;;;;26.53;15.77;;;128.20;2252.80;;;;;;5011277;28;20030;-61
2021/12/14 00:09:30;;;;;;;23.92;14.27;;;128.30;2252.80;;;;;;5010959;28;20535;-59
2021/12/14 00:17:09;;;;;;;20.08;14.20;;;128.30;2252.80;;;;;;5011266;28;20052;-60
2021/12/14 00:19:37;;;;;;;20.75;13.95;;;128.40;2252.80;;;;;;5011245;28;20498;-60
2021/12/14 00:22:17;;;;;;;28.67;19.13;;;128.40;2252.80;;;;;;5010788;28;20033;-61
2021/12/14 00:24:43;;;;;;;83.43;44.28;;;128.40;2252.80;;;;;;5010843;28;20061;-59
2021/12/14 00:27:11;;;;;;;38.70;23.85;;;128.40;2252.80;;;;;;5010885;28;20030;-61
2021/12/14 00:29:41;;;;;;;24.77;15.18;;;128.30;2252.80;;;;;;5010944;28;20030;-59
2021/12/14 00:32:13;;;;;;;22.17;13.18;;;128.30;2252.80;;;;;;5010786;28;20483;-54
2021/12/14 00:34:42;;;;;;;25.98;14.80;;;128.40;2252.80;;;;;;5010642;28;20460;-62
2021/12/14 00:37:13;;;;;;;24.92;15.82;;;128.30;2252.80;;;;;;5010957;28;20037;-61
2021/12/14 00:39:39;;;;;;;23.35;14.98;;;128.30;2252.80;;;;;;5010543;28;20026;-57
2021/12/14 00:42:07;;;;;;;25.85;16.10;;;128.40;2252.80;;;;;;5010918;28;20423;-62
2021/12/14 00:44:34;;;;;;;52.75;27.10;;;128.40;2252.80;;;;;;5010680;28;20084;-61
2021/12/14 00:47:01;;;;;;;40.42;24.63;;;128.30;2252.80;;;;;;5010061;28;20044;-59
2021/12/14 00:49:27;;;;;;;27.77;15.65;;;128.10;2252.80;;;;;;5010555;28;20049;-59
2021/12/14 00:51:54;;;;;;;26.25;17.55;;;128.20;2252.80;;;;;;5010609;28;20050;-60
2021/12/14 00:54:21;;;;;;;27.00;17.92;;;128.40;2252.80;;;;;;5010422;28;20444;-58
2021/12/14 00:56:48;;;;;;;17.63;12.40;;;128.40;2252.80;;;;;;5010438;28;20038;-58
2021/12/14 00:59:15;;;;;;;18.63;13.52;;;128.20;2252.80;;;;;;5010417;28;20026;-61
2021/12/14 01:02:03;;;;;;;17.92;11.18;;;128.30;2252.80;;;;;;5010220;28;20049;-55
2021/12/14 01:04:33;;;;;;;19.45;12.45;;;128.30;2252.80;;;;;;5009729;28;20045;-59
2021/12/14 01:07:00;;;;;;;23.90;16.35;;;128.20;2252.80;;;;;;5010298;28;20108;-57
2021/12/14 01:09:32;;;;;;;28.92;19.55;;;128.30;2252.80;;;;;;5010529;28;20102;-56
2021/12/14 01:12:09;;;;;;;28.40;22.25;;;128.50;2252.80;;;;;;5010135;28;20026;-57
2021/12/14 01:14:51;;;;;;;17.08;11.73;;;128.20;2252.80;;;;;;5010375;28;20468;-57
2021/12/14 01:17:28;;;;;;;19.92;13.90;;;128.10;2252.80;;;;;;5010203;28;20411;-55
2021/12/14 01:19:59;;;;;;;20.08;14.77;;;128.20;2252.80;;;;;;5010459;28;20075;-59
2021/12/14 01:22:45;;;;;;;25.17;16.40;;;128.10;2252.80;;;;;;4992605;28;20076;-56
2021/12/14 01:25:14;;;;;;;22.88;14.30;;;128.10;2252.80;;;;;;5010159;28;20062;-57
2021/12/14 01:28:03;;;;;;;24.42;15.55;;;128.10;2252.80;;;;;;5010002;28;20026;-52
2021/12/14 01:30:41;;;;;;;20.10;14.52;;;128.10;2252.80;;;;;;5010092;28;20384;-56
2021/12/14 01:33:12;;;;;;;16.40;11.90;;;128.10;2252.80;;;;;;5010249;28;20113;-55
2021/12/14 01:35:40;;;;;;;21.77;12.77;;;128.10;2252.80;;;;;;5010045;28;20121;-52
2021/12/14 01:38:20;;;;;;;31.52;19.30;;;128.20;2252.80;;;;;;5010472;28;20033;-56
2021/12/14 01:40:54;;;;;;;18.98;12.00;;;128.20;2252.80;;;;;;5010194;28;20052;-56
2021/12/14 01:43:25;;;;;;;15.15;11.25;;;128.20;2252.80;;;;;;5010036;28;20029;-54
2021/12/14 01:45:51;;;;;;;17.85;11.98;;;128.20;2252.80;;;;;;5009881;28;20034;-57
2021/12/14 01:48:17;;;;;;;16.88;12.02;;;128.10;2252.80;;;;;;5009725;28;20109;-52
2021/12/14 01:50:47;;;;;;;17.67;10.75;;;128.10;2252.80;;;;;;5010060;28;20426;-55
2021/12/14 01:53:15;;;;;;;19.02;13.57;;;128.10;2252.80;;;;;;5009782;28;20033;-53
2021/12/14 01:55:44;;;;;;;20.35;15.45;;;128.10;2252.80;;;;;;5009622;28;20037;-52
2021/12/14 01:58:11;;;;;;;18.80;13.05;;;128.00;2252.80;;;;;;5011600;28;20022;-62
2021/12/14 02:00:52;;;;;;;16.65;11.40;;;128.10;2252.80;;;;;;5013456;28;20160;-53
2021/12/14 02:03:19;;;;;;;16.98;11.43;;;128.20;2252.80;;;;;;5013154;28;20026;-59
2021/12/14 02:05:48;;;;;;;20.17;10.77;;;128.30;2252.80;;;;;;5013516;28;20464;-62
2021/12/14 02:08:28;;;;;;;13.93;10.60;;;128.30;2252.80;;;;;;5013333;28;20030;-57
2021/12/14 02:10:56;;;;;;;13.38;9.30;;;128.40;2252.80;;;;;;5013275;28;20026;-60
2021/12/14 02:13:29;;;;;;;14.38;10.50;;;128.40;2252.80;;;;;;5013139;28;20502;-60
2021/12/14 02:15:55;;;;;;;17.07;11.17;;;128.50;2252.80;;;;;;5013483;28;20026;-60
2021/12/14 02:18:23;;;;;;;20.90;13.57;;;128.40;2252.80;;;;;;5013171;28;20029;-59
2021/12/14 02:20:57;;;;;;;19.08;11.18;;;128.30;2252.80;;;;;;5013128;28;20072;-57
2021/12/14 02:23:24;;;;;;;15.02;10.65;;;128.10;2252.80;;;;;;5012837;28;20672;-58
2021/12/14 02:25:52;;;;;;;22.20;13.75;;;128.20;2252.80;;;;;;5012802;28;20046;-60
2021/12/14 02:28:20;;;;;;;17.08;12.65;;;128.30;2252.80;;;;;;5013012;28;20033;-59
2021/12/14 02:30:49;;;;;;;20.05;12.40;;;128.20;2252.80;;;;;;5013086;28;20030;-52
2021/12/14 02:33:32;;;;;;;24.60;14.05;;;128.30;2252.80;;;;;;5013037;28;20387;-53
2021/12/14 02:36:01;;;;;;;20.70;11.73;;;128.10;2252.80;;;;;;5012601;28;20092;-55
2021/12/14 02:38:27;;;;;;;19.83;12.63;;;128.30;2252.80;;;;;;5012774;28;20507;-52
2021/12/14 02:41:01;;;;;;;15.00;10.45;;;128.40;2252.80;;;;;;5012837;28;20310;-52
2021/12/14 02:43:42;;;;;;;20.25;12.68;;;128.30;2252.80;;;;;;5012503;28;20083;-55
2021/12/14 02:46:24;;;;;;;21.67;12.73;;;128.40;2252.80;;;;;;5012630;28;20018;-52
2021/12/14 02:48:55;;;;;;;17.10;12.48;;;128.40;2252.80;;;;;;5012311;28;20018;-54
2021/12/14 02:51:24;;;;;;;19.67;13.40;;;128.40;2252.80;;;;;;5012222;28;20104;-53
2021/12/14 02:53:53;;;;;;;23.05;14.40;;;128.30;2252.80;;;;;;4994675;28;20026;-54
2021/12/14 02:56:24;;;;;;;18.75;12.32;;;128.20;2252.80;;;;;;5012003;28;20084;-52
2021/12/14 02:58:55;;;;;;;15.63;11.10;;;128.20;2252.80;;;;;;4994139;28;20066;-53
2021/12/14 03:01:21;;;;;;;21.90;12.60;;;128.40;2252.80;;;;;;5012047;28;20025;-53
2021/12/14 03:03:47;;;;;;;19.05;12.25;;;128.20;2252.80;;;;;;5012478;28;20034;-56
2021/12/14 03:06:19;;;;;;;17.23;12.43;;;128.30;2252.80;;;;;;5012762;28;20113;-53
2021/12/14 03:08:57;;;;;;;19.10;12.40;;;128.40;2252.80;;;;;;5011893;28;20519;-54
2021/12/14 03:11:23;;;;;;;25.67;16.85;;;128.40;2252.80;;;;;;5012244;28;20030;-55
2021/12/14 03:13:52;;;;;;;29.10;19.38;;;128.30;2252.80;;;;;;5012004;28;20026;-60
2021/12/14 03:16:25;;;;;;;19.58;13.82;;;128.30;2252.80;;;;;;5012024;28;20041;-55
2021/12/14 03:18:53;;;;;;;25.17;16.90;;;128.20;2252.80;;;;;;5012027;28;20079;-61
2021/12/14 03:21:29;;;;;;;17.23;12.70;;;128.30;2252.80;;;;;;5011879;28;20068;-55
2021/12/14 03:23:59;;;;;;;18.95;12.63;;;128.40;2252.80;;;;;;5011729;28;20046;-55
2021/12/14 03:26:28;;;;;;;19.80;12.60;;;128.50;2252.80;;;;;;5012136;28;20022;-59
2021/12/14 03:28:57;;;;;;;22.40;14.60;;;128.60;2252.80;;;;;;5011988;28;20088;-55
2021/12/14 03:31:34;;;;;;;18.88;12.68;;;128.60;2252.80;;;;;;5012123;28;20056;-54
2021/12/14 03:34:14;;;;;;;17.77;12.77;;;128.50;2252.80;;;;;;5011677;28;20040;-54
2021/12/14 03:36:51;;;;;;;16.85;12.75;;;128.50;2252.80;;;;;;5011699;28;20045;-52
2021/12/14 03:39:47;;;;;;;17.13;10.85;;;128.40;2252.80;;;;;;5011703;28;20026;-55
2021/12/14 03:42:15;;;;;;;16.63;10.90;;;128.30;2252.80;;;;;;5010227;28;20038;-51
2021/12/14 03:44:53;;;;;;;14.05;10.52;;;128.40;2252.80;;;;;;5011498;28;20033;-54
2021/12/14 03:47:32;;;;;;;17.63;12.57;;;128.50;2252.80;;;;;;5011550;28;20053;-54
2021/12/14 03:50:09;;;;;;;18.05;11.05;;;128.50;2252.80;;;;;;5011208;28;20030;-54
2021/12/14 03:52:37;;;;;;;16.52;10.95;;;128.50;2252.80;;;;;;5011461;28;20034;-55
2021/12/14 03:55:12;;;;;;;15.65;10.98;;;128.60;2252.80;;;;;;5011476;28;20030;-56
2021/12/14 03:57:38;;;;;;;19.70;12.93;;;128.50;2252.80;;;;;;5011361;28;20040;-54
2021/12/14 04:00:12;;;;;;;18.30;12.38;;;128.50;2252.80;;;;;;5011354;28;20025;-56
2021/12/14 04:02:38;;;;;;;15.65;11.02;;;128.50;2252.80;;;;;;5011094;28;20038;-53
2021/12/14 04:05:09;;;;;;;14.45;9.20;;;128.60;2252.80;;;;;;5011294;28;20037;-57
2021/12/14 04:07:37;;;;;;;16.00;11.68;;;128.30;2252.80;;;;;;5011550;28;20026;-60
2021/12/14 04:10:08;;;;;;;18.15;12.15;;;128.20;2252.80;;;;;;5011389;28;20054;-53
2021/12/14 04:12:36;;;;;;;22.92;15.02;;;128.10;2252.80;;;;;;5011278;28;20029;-53
2021/12/14 04:15:03;;;;;;;64.60;33.58;;;128.30;2252.80;;;;;;5011230;28;20455;-57
2021/12/14 04:17:30;;;;;;;91.65;50.55;;;128.30;2252.80;;;;;;5011276;28;20427;-54
2021/12/14 04:19:56;;;;;;;40.08;24.83;;;128.10;2252.80;;;;;;5010739;28;20056;-53
2021/12/14 04:22:26;;;;;;;58.28;32.25;;;128.20;2252.80;;;;;;5011000;28;20403;-55
2021/12/14 04:24:56;;;;;;;53.83;32.10;;;128.30;2252.80;;;;;;5010864;28;20053;-54
2021/12/14 04:27:26;;;;;;;29.85;17.88;;;128.40;2252.80;;;;;;5011126;28;20091;-56
2021/12/14 04:29:53;;;;;;;28.20;18.30;;;128.40;2252.80;;;;;;5010586;28;20026;-55
2021/12/14 04:32:20;;;;;;;23.42;16.23;;;128.30;2252.80;;;;;;5010962;28;20026;-56
2021/12/14 04:34:48;;;;;;;21.15;14.82;;;128.20;2252.80;;;;;;5011040;28;20026;-52
2021/12/14 04:37:16;;;;;;;20.67;13.20;;;128.20;2252.80;;;;;;5010713;28;20464;-53
2021/12/14 04:39:53;;;;;;;16.13;13.05;;;128.20;2252.80;;;;;;5010598;28;20025;-62
2021/12/14 04:53:44;;;;;;;17.85;13.10;;;128.10;2252.80;;;;;;5010833;28;20121;-59
2021/12/14 04:56:14;;;;;;;13.98;10.60;;;128.10;2252.80;;;;;;5010415;28;20116;-59
2021/12/14 04:58:47;;;;;;;18.67;12.02;;;128.00;2252.80;;;;;;5010381;28;20040;-53
2021/12/14 05:01:14;;;;;;;17.70;11.82;;;128.10;2252.80;;;;;;5010426;28;20030;-56
2021/12/14 05:03:46;;;;;;;16.17;9.65;;;103.30;2227.20;;;;;;5010192;28;20038;-56
2021/12/14 05:06:18;;;;;;;15.18;10.90;;;103.20;2227.20;;;;;;5010165;28;20022;-60
2021/12/14 05:11:51;;;;;;;14.55;9.48;;;103.30;2227.20;;;;;;5010757;28;20068;-59
2021/12/14 05:14:17;;;;;;;16.40;11.20;;;103.20;2227.20;;;;;;5010570;28;20025;-53
2021/12/14 05:16:43;;;;;;;15.82;10.57;;;103.20;2227.20;;;;;;5010382;28;20046;-60
2021/12/14 05:19:11;;;;;;;14.25;10.15;;;103.20;2227.20;;;;;;5010367;28;20026;-60
2021/12/14 05:21:47;;;;;;;14.85;11.18;;;103.20;2227.20;;;;;;5010281;28;20034;-53
2021/12/14 05:24:16;;;;;;;22.58;13.90;;;128.00;2252.80;;;;;;5010123;28;20116;-59
2021/12/14 05:26:44;;;;;;;25.08;17.50;;;103.30;2227.20;;;;;;5010250;28;20038;-58
2021/12/14 05:29:11;;;;;;;24.75;15.43;;;103.20;2227.20;;;;;;5010201;28;20030;-58
2021/12/14 05:31:49;;;;;;;39.55;29.63;;;103.20;2227.20;;;;;;5011321;28;20030;-51
2021/12/14 05:34:15;;;;;;;52.70;32.42;;;103.20;2227.20;;;;;;5014264;28;20030;-52
2021/12/14 05:36:43;;;;;;;50.58;33.45;;;103.10;2227.20;;;;;;5013846;28;20037;-50
2021/12/14 05:44:33;;;;;;;81.90;48.67;;;128.00;2252.80;;;;;;5013888;28;20034;-52
2021/12/14 05:47:02;;;;;;;55.92;33.50;;;128.20;2252.80;;;;;;5013689;28;20168;-51
2021/12/14 05:49:29;;;;;;;51.53;34.53;;;128.20;2252.80;;;;;;5013740;28;20033;-52
2021/12/14 05:51:58;;;;;;;36.83;25.08;;;128.20;2252.80;;;;;;5013554;28;20033;-52
2021/12/14 05:54:27;;;;;;;42.17;26.42;;;128.20;2252.80;;;;;;5013780;28;20045;-51
2021/12/14 05:56:57;;;;;;;46.45;27.77;;;128.30;2252.80;;;;;;5013635;28;20183;-52
2021/12/14 05:59:27;;;;;;;27.35;17.05;;;128.30;2252.80;;;;;;5013439;28;20033;-52
2021/12/14 06:01:54;;;;;;;18.48;13.75;;;128.30;2252.80;;;;;;5013620;28;20057;-52
2021/12/14 06:04:20;;;;;;;17.40;13.02;;;128.30;2252.80;;;;;;5013141;28;20479;-52
2021/12/14 06:06:52;;;;;;;23.42;15.38;;;128.20;2252.80;;;;;;5013599;28;20038;-50
2021/12/14 06:09:34;;;;;;;26.52;17.08;;;128.30;2252.80;;;;;;5013095;28;20042;-52
2021/12/14 06:12:07;;;;;;;38.72;26.20;;;128.10;2252.80;;;;;;5013238;28;20117;-53
2021/12/14 06:14:40;;;;;;;22.83;15.02;;;128.10;2252.80;;;;;;5013472;28;20030;-50
2021/12/14 06:17:07;;;;;;;25.58;17.25;;;128.20;2252.80;;;;;;5013496;28;20089;-51
2021/12/14 06:19:39;;;;;;;25.77;15.80;;;128.20;2252.80;;;;;;5013745;28;20026;-52
2021/12/14 06:22:05;;;;;;;28.15;19.77;;;128.10;2252.80;;;;;;5013450;28;20026;-59
2021/12/14 06:24:35;;;;;;;71.72;51.65;;;128.00;2252.80;;;;;;5012762;28;20531;-51
2021/12/14 06:27:04;;;;;;;39.95;26.45;;;128.10;2252.80;;;;;;5013272;28;20076;-53
2021/12/14 06:29:46;;;;;;;37.58;24.05;;;128.20;2252.80;;;;;;5012959;28;20499;-55
2021/12/14 06:32:13;;;;;;;46.63;32.00;;;128.30;2252.80;;;;;;5013032;28;20033;-53
2021/12/14 06:34:49;;;;;;;504.23;284.02;;;128.30;2252.80;;;;;;5013084;28;20029;-56
2021/12/14 06:40:12;;;;;;;86.10;58.90;;;128.30;2252.80;;;;;;5012608;28;20030;-65
2021/12/14 06:42:42;;;;;;;66.03;38.28;;;128.30;2252.80;;;;;;5012647;28;20060;-54
2021/12/14 06:45:19;;;;;;;68.35;50.25;;;128.30;2252.80;;;;;;5012369;28;20044;-60
2021/12/14 06:47:47;;;;;;;42.88;29.05;;;128.30;2252.80;;;;;;5012828;28;20026;-53
2021/12/14 06:50:19;;;;;;;51.17;37.72;;;128.20;2252.80;;;;;;5012810;28;20084;-54
2021/12/14 06:52:58;;;;;;;120.13;87.70;;;128.20;2252.80;;;;;;5012424;28;20030;-67
2021/12/14 06:55:26;;;;;;;43.20;27.98;;;128.40;2252.80;;;;;;5012564;28;20113;-65
2021/12/14 06:57:52;;;;;;;20.58;13.82;;;128.30;2252.80;;;;;;5012522;28;20038;-67
2021/12/14 07:00:20;;;;;;;125.03;80.50;;;128.30;2252.80;;;;;;5012364;28;20084;-67
2021/12/14 07:02:48;;;;;;;32.65;22.85;;;128.30;2252.80;;;;;;5012477;28;20062;-65
2021/12/14 07:05:26;;;;;;;57.15;40.33;;;128.40;2252.80;;;;;;5012427;28;20105;-69
2021/12/14 07:07:52;;;;;;;19.45;14.15;;;128.60;2252.80;;;;;;5012106;28;20026;-65
2021/12/14 07:10:18;;;;;;;25.67;15.98;;;128.60;2252.80;;;;;;5012308;28;20029;-56
2021/12/14 07:12:45;;;;;;;18.27;12.13;;;128.70;2252.80;;;;;;5012685;28;20037;-62
2021/12/14 07:15:24;;;;;;;26.42;19.55;;;128.60;2252.80;;;;;;5011979;28;20030;-63
2021/12/14 07:18:01;;;;;;;22.08;15.82;;;128.70;2252.80;;;;;;5012080;28;20030;-67
2021/12/14 07:20:33;;;;;;;26.38;18.38;;;128.50;2252.80;;;;;;5012396;28;20029;-60
2021/12/14 07:23:16;;;;;;;24.77;17.67;;;128.60;2252.80;;;;;;5011720;28;20045;-62
2021/12/14 07:25:42;;;;;;;20.50;15.48;;;128.90;2252.80;;;;;;5011790;28;20034;-62
2021/12/14 07:28:11;;;;;;;19.02;13.82;;;153.70;2252.80;;;;;;5012160;28;20474;-57
2021/12/14 07:30:38;;;;;;;23.95;18.75;;;153.70;2252.80;;;;;;5012153;28;20033;-69
2021/12/14 07:33:23;;;;;;;22.90;19.17;;;154.00;2252.80;;;;;;5011950;28;20030;-69
2021/12/14 07:36:07;;;;;;;22.90;16.80;;;154.10;2252.80;;;;;;5011891;28;20072;-62
2021/12/14 07:38:44;;;;;;;18.33;11.55;;;154.10;2252.80;;;;;;5011894;28;20511;-54
2021/12/14 07:41:16;;;;;;;23.23;16.58;;;153.80;2252.80;;;;;;5011612;28;20045;-55
2021/12/14 07:43:52;;;;;;;44.33;32.47;;;154.00;2252.80;;;;;;5011703;28;20033;-63
2021/12/14 07:46:23;;;;;;;19.55;13.35;;;154.00;2252.80;;;;;;5011390;28;20468;-52
2021/12/14 07:48:53;;;;;;;18.75;13.32;;;154.00;2252.80;;;;;;5011525;28;20076;-55
2021/12/14 07:51:22;;;;;;;18.10;11.35;;;154.20;2252.80;;;;;;5011298;28;20573;-64
2021/12/14 07:53:54;;;;;;;27.77;19.95;;;154.10;2252.80;;;;;;5011244;28;20038;-54
2021/12/14 07:56:35;;;;;;;16.33;12.13;;;154.00;2252.80;;;;;;5010302;28;20061;-57
2021/12/14 07:59:07;;;;;;;13.23;8.82;;;154.00;2252.80;;;;;;5011272;28;20022;-53
2021/12/14 08:01:33;;;;;;;17.60;12.73;;;154.10;2252.80;;;;;;5011476;28;20040;-53
2021/12/14 08:04:05;;;;;;;15.50;11.45;;;154.30;2252.80;;;;;;5011180;28;20014;-55
2021/12/14 08:06:41;;;;;;;18.05;14.52;;;154.30;2252.80;;;;;;5011346;28;20372;-57
2021/12/14 08:09:07;;;;;;;16.17;10.75;;;154.40;2252.80;;;;;;5011418;28;20827;-68
2021/12/14 08:14:12;;;;;;;16.63;11.98;;;179.30;2252.80;;;;;;5011315;28;20022;-52
2021/12/14 08:16:47;;;;;;;17.48;14.00;;;179.20;2252.80;;;;;;5010916;28;20034;-63
2021/12/14 08:19:31;;;;;;;17.30;13.00;;;179.20;2252.80;;;;;;5011440;28;20412;-57
2021/12/14 08:21:59;;;;;;;16.65;12.70;;;179.40;2252.80;;;;;;5011002;28;20029;-63
2021/12/14 08:24:25;;;;;;;20.33;13.63;;;179.40;2252.80;;;;;;5010940;28;20042;-68
2021/12/14 08:26:56;;;;;;;16.65;12.20;;;179.30;2252.80;;;;;;5011005;28;20104;-61
2021/12/14 08:29:24;;;;;;;19.60;13.45;;;179.20;2252.80;;;;;;5010782;28;20032;-64
2021/12/14 08:32:02;;;;;;;15.35;11.73;;;179.40;2252.80;;;;;;5010868;28;20041;-70
2021/12/14 08:34:31;;;;;;;22.70;17.38;;;179.40;2252.80;;;;;;5010948;28;20092;-63
2021/12/14 08:37:07;;;;;;;15.35;10.48;;;179.50;2252.80;;;;;;5010945;28;20038;-69
2021/12/14 08:39:44;;;;;;;16.75;11.38;;;179.30;2252.80;;;;;;5010754;28;20045;-54
2021/12/14 08:42:23;;;;;;;16.17;12.73;;;179.30;2252.80;;;;;;5010841;28;20018;-70
2021/12/14 08:44:54;;;;;;;19.30;13.63;;;179.20;2252.80;;;;;;5010639;28;20021;-62
2021/12/14 08:47:39;;;;;;;18.42;12.60;;;179.40;2252.80;;;;;;5010530;28;20030;-66
2021/12/14 08:50:09;;;;;;;16.85;11.73;;;179.60;2252.80;;;;;;5010776;28;20097;-67
2021/12/14 08:52:35;;;;;;;16.67;13.27;;;179.50;2252.80;;;;;;5010571;28;20109;-61
2021/12/14 08:55:05;;;;;;;20.33;13.68;;;179.60;2252.80;;;;;;5010366;28;20026;-62
2021/12/14 08:57:32;;;;;;;21.52;15.25;;;179.70;2252.80;;;;;;5010180;28;20037;-57
2021/12/14 09:00:14;;;;;;;34.72;23.50;;;179.80;2252.80;;;;;;5010351;28;20068;-57
2021/12/14 09:02:41;;;;;;;20.83;15.05;;;179.90;2252.80;;;;;;5010510;28;20028;-59
2021/12/14 09:05:19;;;;;;;21.38;15.75;;;180.00;2252.80;;;;;;5010469;28;20041;-61
2021/12/14 09:07:45;;;;;;;53.20;38.28;;;205.20;2252.80;;;;;;5010189;28;20026;-63
2021/12/14 09:10:17;;;;;;;24.83;16.00;;;230.80;2252.80;;;;;;5010273;28;20472;-70
2021/12/14 09:12:46;;;;;;;21.75;16.48;;;230.40;2252.80;;;;;;5010703;28;20033;-68
2021/12/14 09:15:24;;;;;;;43.13;33.88;;;230.90;2252.80;;;;;;5010263;28;20034;-70
2021/12/14 09:17:52;;;;;;;24.95;16.80;;;231.30;2252.80;;;;;;5010423;28;20038;-70
2021/12/14 09:20:48;;;;;;;19.15;12.93;;;256.10;2252.80;;;;;;5010454;28;20052;-54
2021/12/14 09:23:21;;;;;;;22.25;17.80;;;231.20;2252.80;;;;;;5010067;28;20042;-68
2021/12/14 09:25:48;;;;;;;27.35;20.42;;;256.00;2252.80;;;;;;5010122;28;20029;-69
2021/12/14 09:28:15;;;;;;;19.88;15.63;;;231.10;2252.80;;;;;;5010356;28;20120;-73
2021/12/14 09:30:52;;;;;;;17.60;13.10;;;230.60;2252.80;;;;;;5010358;28;20425;-67
2021/12/14 09:33:18;;;;;;;18.50;13.68;;;230.40;2252.80;;;;;;5010398;28;20022;-55
2021/12/14 09:35:46;;;;;;;20.50;13.57;;;205.40;2252.80;;;;;;5010352;28;20566;-71
2021/12/14 09:38:13;;;;;;;22.13;15.45;;;205.30;2252.80;;;;;;5010052;28;20539;-72
2021/12/14 09:40:46;;;;;;;19.27;13.23;;;205.20;2252.80;;;;;;5010165;28;20022;-70
2021/12/14 09:43:12;;;;;;;19.27;14.07;;;205.20;2252.80;;;;;;5010083;28;20113;-71
2021/12/14 09:45:44;;;;;;;23.73;15.55;;;205.10;2252.80;;;;;;5010390;28;20108;-66
2021/12/14 09:48:21;;;;;;;22.85;15.52;;;205.30;2252.80;;;;;;5010228;28;20026;-72
2021/12/14 09:50:48;;;;;;;22.08;16.48;;;205.40;2252.80;;;;;;5010218;28;20018;-71
2021/12/14 09:53:18;;;;;;;23.80;15.13;;;205.10;2252.80;;;;;;5010042;28;20033;-72
2021/12/14 09:55:45;;;;;;;18.42;12.88;;;205.20;2252.80;;;;;;5010074;28;20030;-72
2021/12/14 09:58:19;;;;;;;16.75;12.88;;;205.10;2252.80;;;;;;5009970;28;20034;-71
2021/12/14 10:01:06;;;;;;;23.25;16.25;;;204.90;2252.80;;;;;;5010121;28;20468;-73
2021/12/14 10:03:33;;;;;;;15.43;12.38;;;180.10;2252.80;;;;;;5009810;28;20044;-65
2021/12/14 10:06:03;;;;;;;14.85;11.43;;;180.00;2252.80;;;;;;5009671;28;20033;-61
2021/12/14 10:08:35;;;;;;;18.90;12.35;;;180.00;2252.80;;;;;;5009738;28;20464;-54
2021/12/14 10:11:12;;;;;;;16.02;11.38;;;204.90;2252.80;;;;;;5009822;28;20034;-54
2021/12/14 10:13:44;;;;;;;16.77;12.32;;;205.00;2252.80;;;;;;4992198;28;20034;-56
2021/12/14 10:16:10;;;;;;;20.25;15.75;;;205.00;2252.80;;;;;;5009567;28;20030;-54
2021/12/14 10:18:46;;;;;;;20.08;15.80;;;204.80;2252.80;;;;;;5010920;28;20065;-71
2021/12/14 10:21:27;;;;;;;16.42;11.82;;;205.00;2252.80;;;;;;5013078;28;20025;-71
2021/12/14 10:23:54;;;;;;;18.75;13.55;;;204.90;2252.80;;;;;;5013244;28;20066;-69
2021/12/14 10:26:21;;;;;;;17.98;13.27;;;205.00;2252.80;;;;;;5013015;28;20109;-71
2021/12/14 10:29:10;;;;;;;19.88;13.95;;;205.00;2252.80;;;;;;5030063;22;20034;-58
2021/12/14 10:31:48;;;;;;;15.23;11.02;;;204.90;2252.80;;;;;;5179733;22;20456;-62
2021/12/14 10:34:26;;;;;;;25.25;17.38;;;204.90;2252.80;;;;;;5041514;23;20057;-62
2021/12/14 10:37:13;;;;;;;15.32;11.93;;;180.00;2252.80;;;;;;5031171;28;20026;-62
2021/12/14 10:42:39;;;;;;;39.92;28.35;;;180.00;2252.80;;;;;;5031038;28;20590;-62
2021/12/14 10:45:07;;;;;;;19.40;11.45;;;179.80;2252.80;;;;;;5031461;28;20048;-62
2021/12/14 10:47:34;;;;;;;19.23;13.27;;;179.60;2252.80;;;;;;5031126;28;20026;-62
2021/12/14 10:50:07;;;;;;;15.95;12.05;;;179.60;2252.80;;;;;;5031848;28;20040;-62
2021/12/14 10:52:34;;;;;;;18.35;12.80;;;179.50;2252.80;;;;;;5031527;28;20029;-62
2021/12/14 10:55:19;;;;;;;51.20;35.35;;;179.70;2252.80;;;;;;5031139;28;20395;-62
2021/12/14 10:57:47;;;;;;;43.58;30.63;;;179.90;2252.80;;;;;;5030473;28;20046;-62
2021/12/14 11:00:32;;;;;;;145.23;107.82;;;180.00;2252.80;;;;;;5030402;28;20021;-62
2021/12/14 11:03:09;;;;;;;39.95;27.50;;;179.80;2252.80;;;;;;5030577;28;20041;-62
2021/12/14 11:05:37;;;;;;;43.28;29.20;;;204.80;2252.80;;;;;;5030587;28;20025;-63
2021/12/14 11:08:10;;;;;;;115.40;85.38;;;179.70;2252.80;;;;;;5030654;28;20029;-62
2021/12/14 11:10:38;;;;;;;21.65;13.90;;;179.40;2252.80;;;;;;5030487;28;20033;-62
2021/12/14 11:13:08;;;;;;;43.92;29.30;;;179.50;2252.80;;;;;;5029730;28;20477;-62
2021/12/14 11:15:39;;;;;;;42.75;33.63;;;179.60;2252.80;;;;;;5030447;28;20760;-62
2021/12/14 11:18:12;;;;;;;14.93;10.75;;;179.70;2252.80;;;;;;5012000;28;20045;-63
2021/12/14 11:21:00;;;;;;;23.52;17.67;;;179.90;2252.80;;;;;;5030320;28;20057;-62
2021/12/14 11:23:40;;;;;;;25.30;19.17;;;180.00;2252.80;;;;;;5029842;28;20029;-63
2021/12/14 11:26:17;;;;;;;19.63;13.32;;;180.10;2252.80;;;;;;5029600;28;20080;-62
2021/12/14 11:29:05;;;;;;;42.75;30.23;;;180.00;2252.80;;;;;;5030222;28;20025;-62
2021/12/14 11:31:36;;;;;;;28.20;18.92;;;179.80;2252.80;;;;;;4949583;29;20478;-62
2021/12/14 11:34:16;;;;;;;17.73;14.15;;;179.90;2252.80;;;;;;4949296;29;20047;-62
2021/12/14 11:36:54;;;;;;;18.63;14.25;;;180.00;2252.80;;;;;;4949540;29;20070;-62
2021/12/14 11:39:27;;;;;;;14.32;9.82;;;180.00;2252.80;;;;;;4949147;29;20038;-62
2021/12/14 11:42:07;;;;;;;14.23;9.90;;;180.10;2252.80;;;;;;4951904;29;20032;-62
2021/12/14 11:44:34;;;;;;;18.73;12.80;;;179.90;2252.80;;;;;;4951502;29;20082;-62
2021/12/14 11:49:58;;;;;;;21.95;15.65;;;179.90;2252.80;;;;;;4951007;29;20027;-63
2021/12/14 11:52:50;;;;;;;20.67;14.20;;;179.80;2252.80;;;;;;4950910;29;20473;-63
2021/12/14 11:55:16;;;;;;;19.90;12.65;;;179.80;2252.80;;;;;;4950910;29;20054;-62
2021/12/14 11:57:42;;;;;;;18.23;14.10;;;179.80;2252.80;;;;;;4951130;29;20043;-63
2021/12/14 12:00:14;;;;;;;14.40;10.25;;;179.90;2252.80;;;;;;4950892;29;20401;-62
2021/12/14 12:02:40;;;;;;;17.80;12.67;;;179.80;2252.80;;;;;;4950972;29;20047;-63
2021/12/14 12:05:19;;;;;;;15.77;10.55;;;179.80;2252.80;;;;;;4950842;29;20058;-63
2021/12/14 12:10:39;;;;;;;15.20;10.43;;;179.80;2252.80;;;;;;5031150;28;20059;-63
2021/12/14 12:13:05;;;;;;;15.35;10.43;;;179.60;2252.80;;;;;;5030824;28;20430;-62
2021/12/14 12:15:36;;;;;;;14.57;9.95;;;179.60;2252.80;;;;;;5030784;28;20030;-62
2021/12/14 12:18:02;;;;;;;15.10;10.93;;;179.50;2252.80;;;;;;5030657;28;20044;-62
2021/12/14 12:20:38;;;;;;;15.10;9.77;;;179.50;2252.80;;;;;;5030639;28;20375;-62
2021/12/14 12:23:13;;;;;;;16.70;11.80;;;179.50;2252.80;;;;;;5030739;28;20036;-62
2021/12/14 12:25:44;;;;;;;13.52;9.27;;;179.40;2252.80;;;;;;5030583;28;20029;-62
2021/12/14 12:28:17;;;;;;;12.38;8.43;;;179.50;2252.80;;;;;;5030830;28;20060;-62
2021/12/14 12:31:11;;;;;;;16.98;11.13;;;179.50;2252.80;;;;;;5030461;28;20487;-62
2021/12/14 12:33:45;;;;;;;28.15;18.60;;;179.50;2252.80;;;;;;5030124;28;20041;-62
2021/12/14 12:36:25;;;;;;;60.63;42.53;;;179.50;2252.80;;;;;;5030314;28;20467;-62
2021/12/14 12:39:15;;;;;;;51.03;39.35;;;179.50;2252.80;;;;;;5030561;28;20083;-63
2021/12/14 12:41:48;;;;;;;20.63;13.73;;;179.60;2252.80;;;;;;5030176;28;20032;-62
2021/12/14 12:44:24;;;;;;;19.50;13.48;;;179.60;2252.80;;;;;;5030720;28;20667;-62
2021/12/14 12:47:07;;;;;;;65.57;38.80;;;179.60;2252.80;;;;;;5030577;28;20034;-62
2021/12/14 12:49:40;;;;;;;36.55;25.00;;;179.70;2252.80;;;;;;5030227;28;20039;-62
2021/12/14 12:52:14;;;;;;;28.48;19.08;;;179.60;2252.80;;;;;;5030190;28;20025;-62
2021/12/14 12:55:02;;;;;;;31.27;23.52;;;179.60;2252.80;;;;;;5030343;28;20079;-71
2021/12/14 12:57:43;;;;;;;18.45;12.93;;;179.50;2252.80;;;;;;5030016;28;20034;-62
2021/12/14 13:00:17;;;;;;;26.23;20.27;;;179.50;2252.80;;;;;;5029952;28;20107;-62
2021/12/14 13:03:05;;;;;;;46.10;32.90;;;179.60;2252.80;;;;;;5029888;28;20037;-62